Time;durP1;ratioP1;P1;durP2;ratioP2;P2;SDS_P1;SDS_P2;PMS_P1;PMS_P2;Temp;Humidity;BMP_temperature;BMP_pressure;BME280_temperature;BME280_humidity;BME280_pressure;Samples;Min_cycle;Max_cycle;Signal;HPM_P1;HPM_P2
2022/11/22 00:01:37;;;;;;;11.77;1.80;;;;;;;;;;5029324;28;20558;-78
2022/11/22 00:04:03;;;;;;;11.93;2.43;;;;;;;;;;5014424;28;20048;-77
2022/11/22 00:06:31;;;;;;;12.67;2.67;;;;;;;;;;5031206;28;20026;-78
2022/11/22 00:08:57;;;;;;;11.07;2.60;;;;;;;;;;5034156;28;20029;-78
2022/11/22 00:11:26;;;;;;;6.87;2.13;;;;;;;;;;5015567;28;20037;-78
2022/11/22 00:13:52;;;;;;;10.63;2.90;;;;;;;;;;5014409;28;20081;-78
2022/11/22 00:16:18;;;;;;;5.67;2.57;;;;;;;;;;5030741;28;20030;-76
2022/11/22 00:18:44;;;;;;;7.97;2.40;;;;;;;;;;5047169;28;20048;-77
2022/11/22 00:21:10;;;;;;;10.67;2.83;;;;;;;;;;5047840;28;20472;-77
2022/11/22 00:23:36;;;;;;;14.20;2.60;;;;;;;;;;5015394;28;20022;-78
2022/11/22 00:26:02;;;;;;;6.60;2.37;;;;;;;;;;5011619;28;20038;-78
2022/11/22 00:28:28;;;;;;;8.50;2.53;;;;;;;;;;5004090;28;20065;-76
2022/11/22 00:30:54;;;;;;;7.17;2.10;;;;;;;;;;5013899;28;20366;-78
2022/11/22 00:33:22;;;;;;;7.57;2.03;;;;;;;;;;5030445;28;20113;-78
2022/11/22 00:35:48;;;;;;;14.50;4.27;;;;;;;;;;5014240;28;20033;-78
2022/11/22 00:38:14;;;;;;;7.93;2.20;;;;;;;;;;5014674;28;20033;-78
2022/11/22 00:40:40;;;;;;;11.20;2.53;;;;;;;;;;5015566;28;20096;-78
2022/11/22 00:43:08;;;;;;;5.60;2.03;;;;;;;;;;5014887;28;20037;-77
2022/11/22 00:45:34;;;;;;;6.23;1.90;;;;;;;;;;5030554;28;20134;-78
2022/11/22 00:48:00;;;;;;;5.80;2.10;;;;;;;;;;5023181;28;20027;-78
2022/11/22 00:50:26;;;;;;;9.00;2.20;;;;;;;;;;5044794;28;20034;-77
2022/11/22 00:52:52;;;;;;;11.67;2.00;;;;;;;;;;5014822;28;20105;-78
2022/11/22 00:55:18;;;;;;;11.07;2.17;;;;;;;;;;5014989;28;20034;-78
2022/11/22 00:57:47;;;;;;;9.00;2.17;;;;;;;;;;5010895;28;20105;-78
2022/11/22 01:00:13;;;;;;;9.00;1.33;;;;;;;;;;5014295;28;20088;-78
2022/11/22 01:02:39;;;;;;;7.17;2.20;;;;;;;;;;5015400;28;20029;-77
2022/11/22 01:05:06;;;;;;;6.20;2.20;;;;;;;;;;5013706;28;20101;-77
2022/11/22 01:07:32;;;;;;;6.20;2.03;;;;;;;;;;5028981;28;20030;-78
2022/11/22 01:09:58;;;;;;;8.60;2.30;;;;;;;;;;5014581;28;20037;-78
2022/11/22 01:12:24;;;;;;;7.33;1.50;;;;;;;;;;5014669;28;20041;-77
2022/11/22 01:14:50;;;;;;;5.97;2.37;;;;;;;;;;5047169;28;20029;-78
2022/11/22 01:17:16;;;;;;;5.63;2.00;;;;;;;;;;5013648;28;20513;-78
2022/11/22 01:19:42;;;;;;;6.83;1.97;;;;;;;;;;5047006;28;20034;-78
2022/11/22 01:22:08;;;;;;;7.57;2.13;;;;;;;;;;5005857;28;20459;-76
2022/11/22 01:24:34;;;;;;;7.77;2.27;;;;;;;;;;5042395;28;20092;-77
2022/11/22 01:27:00;;;;;;;8.90;1.67;;;;;;;;;;5013302;28;20030;-78
2022/11/22 01:29:26;;;;;;;6.70;1.63;;;;;;;;;;5013544;28;20029;-78
2022/11/22 01:31:55;;;;;;;12.07;2.20;;;;;;;;;;5025410;28;20084;-78
2022/11/22 01:34:21;;;;;;;8.57;2.03;;;;;;;;;;5030127;28;20041;-77
2022/11/22 01:36:47;;;;;;;6.20;1.60;;;;;;;;;;5007996;28;20033;-78
2022/11/22 01:39:14;;;;;;;6.47;2.20;;;;;;;;;;5013855;28;20045;-78
2022/11/22 01:41:42;;;;;;;8.07;2.37;;;;;;;;;;5030973;28;20028;-77
2022/11/22 01:44:29;;;;;;;5.87;1.63;;;;;;;;;;5015778;28;20265;-77
2022/11/22 01:46:55;;;;;;;5.63;2.10;;;;;;;;;;5013800;28;20358;-75
2022/11/22 01:49:33;;;;;;;6.40;1.73;;;;;;;;;;5015775;28;20398;-78
2022/11/22 01:52:02;;;;;;;8.27;2.13;;;;;;;;;;5023551;28;20069;-78
2022/11/22 01:54:30;;;;;;;8.13;2.10;;;;;;;;;;5016185;28;20371;-76
2022/11/22 01:56:58;;;;;;;9.33;2.50;;;;;;;;;;5015061;28;20092;-75
2022/11/22 01:59:26;;;;;;;5.93;2.17;;;;;;;;;;5017153;28;20151;-77
2022/11/22 02:01:52;;;;;;;7.87;2.43;;;;;;;;;;5028480;28;20040;-78
2022/11/22 02:04:19;;;;;;;8.07;1.93;;;;;;;;;;5031953;28;20034;-78
2022/11/22 02:07:05;;;;;;;5.37;2.13;;;;;;;;;;5019387;28;20037;-78
2022/11/22 02:09:32;;;;;;;8.63;2.07;;;;;;;;;;5011728;28;20029;-78
2022/11/22 02:12:00;;;;;;;5.33;2.13;;;;;;;;;;5020429;28;20733;-78
2022/11/22 02:14:27;;;;;;;10.27;2.00;;;;;;;;;;5019160;28;20113;-76
2022/11/22 02:16:53;;;;;;;11.43;2.40;;;;;;;;;;5019321;28;20462;-76
2022/11/22 02:19:26;;;;;;;5.53;2.50;;;;;;;;;;5016636;28;20900;-77
2022/11/22 02:21:57;;;;;;;7.72;1.95;;;;;;;;;;5030985;28;20042;-79
2022/11/22 02:24:26;;;;;;;7.60;2.40;;;;;;;;;;5019611;28;20034;-77
2022/11/22 02:26:52;;;;;;;12.20;2.67;;;;;;;;;;5019148;28;20038;-77
2022/11/22 02:29:20;;;;;;;8.03;2.37;;;;;;;;;;5025696;28;20045;-77
2022/11/22 02:31:46;;;;;;;9.70;2.50;;;;;;;;;;5016823;28;20059;-77
2022/11/22 02:34:13;;;;;;;7.07;2.17;;;;;;;;;;5018990;28;20434;-77
2022/11/22 02:36:44;;;;;;;10.27;2.63;;;;;;;;;;5018113;28;20044;-76
2022/11/22 02:39:15;;;;;;;7.80;2.67;;;;;;;;;;5027554;28;20038;-77
2022/11/22 02:41:43;;;;;;;11.67;2.37;;;;;;;;;;5026539;28;20034;-78
2022/11/22 02:44:10;;;;;;;6.07;2.27;;;;;;;;;;5028207;28;20029;-76
2022/11/22 02:46:45;;;;;;;8.33;2.70;;;;;;;;;;5017210;28;20060;-78
2022/11/22 02:49:11;;;;;;;10.33;2.63;;;;;;;;;;5017119;28;20038;-77
2022/11/22 02:51:37;;;;;;;6.93;2.33;;;;;;;;;;5018924;28;20040;-76
2022/11/22 02:54:03;;;;;;;8.63;2.13;;;;;;;;;;5029932;28;20499;-77
2022/11/22 02:56:29;;;;;;;14.67;2.93;;;;;;;;;;5016531;28;20071;-77
2022/11/22 02:58:57;;;;;;;11.20;2.80;;;;;;;;;;5027513;28;20249;-76
2022/11/22 03:01:23;;;;;;;10.40;2.30;;;;;;;;;;5033157;28;20452;-77
2022/11/22 03:03:49;;;;;;;7.53;2.70;;;;;;;;;;5031182;28;20021;-78
2022/11/22 03:06:17;;;;;;;7.60;2.70;;;;;;;;;;5020110;28;20599;-78
2022/11/22 03:08:43;;;;;;;9.43;2.60;;;;;;;;;;5028870;28;20079;-76
2022/11/22 03:11:09;;;;;;;10.50;2.60;;;;;;;;;;5016765;28;20069;-77
2022/11/22 03:13:37;;;;;;;10.27;2.63;;;;;;;;;;5032721;28;20037;-76
2022/11/22 03:16:04;;;;;;;9.43;2.70;;;;;;;;;;5024071;28;20254;-77
2022/11/22 03:18:29;;;;;;;10.27;2.70;;;;;;;;;;5019224;28;20041;-77
2022/11/22 03:20:55;;;;;;;9.37;2.10;;;;;;;;;;5018123;28;20029;-77
2022/11/22 03:23:21;;;;;;;9.63;2.40;;;;;;;;;;5031666;28;20038;-77
2022/11/22 03:25:47;;;;;;;14.83;2.97;;;;;;;;;;5035010;28;20025;-78
2022/11/22 03:28:16;;;;;;;12.97;3.20;;;;;;;;;;5016125;28;20057;-77
2022/11/22 03:30:42;;;;;;;7.53;2.50;;;;;;;;;;5016886;28;20076;-76
2022/11/22 03:33:08;;;;;;;7.70;2.27;;;;;;;;;;5017875;28;20037;-77
2022/11/22 03:35:34;;;;;;;7.10;2.73;;;;;;;;;;5016799;28;20581;-78
2022/11/22 03:38:01;;;;;;;6.50;2.10;;;;;;;;;;5015314;28;20374;-78
2022/11/22 03:40:27;;;;;;;8.03;2.40;;;;;;;;;;5015122;28;20045;-78
2022/11/22 03:42:53;;;;;;;10.20;2.83;;;;;;;;;;5020262;28;20440;-78
2022/11/22 03:45:19;;;;;;;5.87;2.53;;;;;;;;;;5018446;28;20033;-78
2022/11/22 03:47:45;;;;;;;8.27;2.93;;;;;;;;;;5015854;28;20029;-78
2022/11/22 03:50:11;;;;;;;10.60;3.07;;;;;;;;;;5013178;28;20026;-77
2022/11/22 03:52:37;;;;;;;8.10;2.37;;;;;;;;;;5031551;28;20025;-78
2022/11/22 03:55:07;;;;;;;8.87;2.27;;;;;;;;;;5010223;28;20049;-78
2022/11/22 03:57:33;;;;;;;5.80;2.50;;;;;;;;;;5014802;28;20025;-78
2022/11/22 03:59:59;;;;;;;6.00;2.50;;;;;;;;;;5009316;28;20081;-78
2022/11/22 04:02:25;;;;;;;8.83;2.87;;;;;;;;;;5030369;28;20038;-76
2022/11/22 04:04:52;;;;;;;7.90;2.30;;;;;;;;;;5015312;28;20304;-78
2022/11/22 04:07:18;;;;;;;8.13;2.83;;;;;;;;;;5014779;28;20033;-78
2022/11/22 04:09:46;;;;;;;5.60;2.70;;;;;;;;;;5013636;28;20101;-78
2022/11/22 04:12:12;;;;;;;7.30;2.40;;;;;;;;;;5014300;28;20512;-78
2022/11/22 04:17:43;;;;;;;9.87;2.77;;;;;;;;;;4994048;28;20121;-78
2022/11/22 04:23:06;;;;;;;13.17;2.83;;;;;;;;;;4993574;28;20042;-77
2022/11/22 04:25:33;;;;;;;8.37;2.67;;;;;;;;;;4987485;28;20057;-78
2022/11/22 04:27:59;;;;;;;9.67;3.30;;;;;;;;;;4993881;28;20058;-78
2022/11/22 04:33:10;;;;;;;17.83;3.87;;;;;;;;;;4994240;28;20073;-77
2022/11/22 04:35:37;;;;;;;11.40;3.07;;;;;;;;;;4990351;28;20455;-79
2022/11/22 04:38:03;;;;;;;12.73;3.37;;;;;;;;;;4990719;28;20297;-78
2022/11/22 04:40:29;;;;;;;16.60;3.57;;;;;;;;;;4993715;28;20419;-77
2022/11/22 04:45:40;;;;;;;16.40;3.57;;;;;;;;;;4991148;28;20285;-77
2022/11/22 04:48:11;;;;;;;20.40;3.83;;;;;;;;;;5000944;28;20042;-77
2022/11/22 04:53:22;;;;;;;14.10;4.40;;;;;;;;;;5014986;28;20653;-78
2022/11/22 04:55:50;;;;;;;18.37;4.97;;;;;;;;;;5014868;28;20550;-78
2022/11/22 04:58:16;;;;;;;15.50;4.27;;;;;;;;;;5046777;28;20617;-77
2022/11/22 05:00:42;;;;;;;12.23;4.40;;;;;;;;;;5014762;28;20022;-78
2022/11/22 05:03:09;;;;;;;16.43;3.93;;;;;;;;;;5013868;28;20104;-78
2022/11/22 05:05:39;;;;;;;12.53;3.70;;;;;;;;;;5014813;28;20034;-76
2022/11/22 05:08:05;;;;;;;9.93;3.43;;;;;;;;;;5013994;28;20269;-77
2022/11/22 05:10:55;;;;;;;9.93;3.33;;;;;;;;;;5029278;28;20084;-76
2022/11/22 05:13:19;;;;;;;10.70;3.60;;;;;;;;;;5014474;28;20714;-77
2022/11/22 05:15:45;;;;;;;19.30;5.87;;;;;;;;;;5013961;28;20319;-77
2022/11/22 05:18:11;;;;;;;24.80;4.67;;;;;;;;;;5013525;28;20113;-78
2022/11/22 05:20:37;;;;;;;19.43;4.17;;;;;;;;;;5030124;28;20269;-77
2022/11/22 05:25:48;;;;;;;20.23;4.10;;;;;;;;;;5014949;28;20748;-78
2022/11/22 05:28:14;;;;;;;27.90;5.47;;;;;;;;;;5013886;28;20465;-78
2022/11/22 05:30:43;;;;;;;28.93;5.27;;;;;;;;;;5013741;28;20029;-77
2022/11/22 05:33:09;;;;;;;22.83;6.00;;;;;;;;;;5014493;28;20022;-77
2022/11/22 05:35:35;;;;;;;24.23;4.87;;;;;;;;;;5051843;28;20104;-78
2022/11/22 05:38:01;;;;;;;34.80;5.50;;;;;;;;;;5017723;28;20022;-76
2022/11/22 05:40:27;;;;;;;17.83;3.93;;;;;;;;;;5017840;28;20076;-77
2022/11/22 05:42:56;;;;;;;21.73;3.90;;;;;;;;;;5017811;28;20481;-78
2022/11/22 05:45:22;;;;;;;30.50;4.53;;;;;;;;;;5017389;28;20173;-77
2022/11/22 05:47:48;;;;;;;19.10;4.63;;;;;;;;;;5018215;28;20109;-77
2022/11/22 05:50:14;;;;;;;17.90;4.93;;;;;;;;;;5033635;28;20104;-76
2022/11/22 05:52:40;;;;;;;21.83;5.10;;;;;;;;;;5017649;28;20026;-77
2022/11/22 05:55:09;;;;;;;29.97;5.57;;;;;;;;;;5017173;28;20586;-78
2022/11/22 05:57:37;;;;;;;17.93;4.03;;;;;;;;;;5017386;28;20034;-78
2022/11/22 06:00:04;;;;;;;29.27;4.73;;;;;;;;;;5033568;28;20120;-78
2022/11/22 06:02:30;;;;;;;30.00;4.70;;;;;;;;;;5015486;28;20130;-76
2022/11/22 06:04:56;;;;;;;18.03;4.27;;;;;;;;;;5016654;28;20041;-78
2022/11/22 06:07:23;;;;;;;24.57;4.43;;;;;;;;;;5050173;28;20022;-77
2022/11/22 06:09:49;;;;;;;25.53;4.30;;;;;;;;;;5050044;28;20497;-80
2022/11/22 06:12:15;;;;;;;23.27;5.03;;;;;;;;;;5016400;28;20462;-78
2022/11/22 06:14:41;;;;;;;22.60;5.83;;;;;;;;;;5033630;28;20049;-78
2022/11/22 06:17:07;;;;;;;26.10;5.17;;;;;;;;;;5040940;28;20088;-78
2022/11/22 06:19:35;;;;;;;28.30;5.40;;;;;;;;;;5016434;28;20026;-78
2022/11/22 06:22:04;;;;;;;32.30;5.70;;;;;;;;;;5008024;28;20710;-78
2022/11/22 06:24:30;;;;;;;23.87;4.93;;;;;;;;;;5047831;28;20265;-78
2022/11/22 06:26:56;;;;;;;27.27;5.60;;;;;;;;;;5017238;28;20303;-77
2022/11/22 06:29:23;;;;;;;22.07;5.27;;;;;;;;;;5049994;28;20030;-78
2022/11/22 06:31:51;;;;;;;28.30;5.27;;;;;;;;;;5013570;28;20062;-77
2022/11/22 06:34:17;;;;;;;20.00;4.70;;;;;;;;;;5012215;28;20257;-76
2022/11/22 06:36:43;;;;;;;36.40;5.00;;;;;;;;;;5015846;28;20041;-77
2022/11/22 06:39:09;;;;;;;28.83;5.17;;;;;;;;;;5017062;28;20108;-78
2022/11/22 06:41:36;;;;;;;24.37;5.50;;;;;;;;;;5010491;28;20277;-78
2022/11/22 06:44:07;;;;;;;22.33;4.80;;;;;;;;;;5016020;28;20057;-77
2022/11/22 06:46:33;;;;;;;22.23;5.17;;;;;;;;;;5016611;28;20029;-78
2022/11/22 06:48:59;;;;;;;26.03;6.87;;;;;;;;;;5017048;28;20135;-77
2022/11/22 06:51:26;;;;;;;27.13;5.53;;;;;;;;;;5029746;28;20042;-77
2022/11/22 06:53:56;;;;;;;27.93;6.27;;;;;;;;;;5017094;28;20434;-77
2022/11/22 06:56:24;;;;;;;24.63;5.80;;;;;;;;;;5029090;28;20034;-77
2022/11/22 06:58:50;;;;;;;19.50;5.87;;;;;;;;;;5017265;28;20084;-77
2022/11/22 07:01:17;;;;;;;28.80;5.57;;;;;;;;;;5014269;28;20080;-77
2022/11/22 07:03:44;;;;;;;14.73;4.80;;;;;;;;;;5000844;28;20444;-77
2022/11/22 07:06:11;;;;;;;22.13;4.50;;;;;;;;;;4998524;28;20117;-77
2022/11/22 07:08:40;;;;;;;27.83;5.77;;;;;;;;;;5013836;28;20033;-77
2022/11/22 07:11:22;;;;;;;21.60;4.63;;;;;;;;;;5015622;28;20054;-77
2022/11/22 07:13:49;;;;;;;19.27;4.82;;;;;;;;;;5015731;28;20033;-77
2022/11/22 07:16:16;;;;;;;21.73;5.53;;;;;;;;;;5032482;28;20415;-77
2022/11/22 07:18:42;;;;;;;15.53;4.67;;;;;;;;;;5045740;28;20465;-77
2022/11/22 07:21:13;;;;;;;21.20;4.87;;;;;;;;;;5032041;28;20018;-76
2022/11/22 07:23:39;;;;;;;19.40;5.03;;;;;;;;;;5013961;28;20026;-77
2022/11/22 07:26:08;;;;;;;27.90;4.90;;;;;;;;;;5010773;28;20093;-77
2022/11/22 07:28:37;;;;;;;23.20;4.23;;;;;;;;;;5022894;28;20026;-76
2022/11/22 07:31:04;;;;;;;16.43;4.33;;;;;;;;;;5040032;28;20050;-77
2022/11/22 07:33:31;;;;;;;35.00;5.23;;;;;;;;;;5013981;28;20088;-78
2022/11/22 07:36:03;;;;;;;16.83;3.50;;;;;;;;;;5046576;28;20497;-76
2022/11/22 07:38:29;;;;;;;;;;;;;;;;;;5010735;28;20037;-76
2022/11/22 07:40:58;;;;;;;16.40;2.87;;;;;;;;;;5017959;28;19983;-76
2022/11/22 07:43:24;;;;;;;27.50;4.03;;;;;;;;;;5024979;28;20099;-76
2022/11/22 07:45:50;;;;;;;16.23;2.77;;;;;;;;;;5030925;28;20034;-76
2022/11/22 07:48:16;;;;;;;15.80;3.27;;;;;;;;;;5034667;28;20083;-76
2022/11/22 07:50:42;;;;;;;25.03;4.53;;;;;;;;;;5032344;28;20025;-78
2022/11/22 07:53:09;;;;;;;17.63;3.27;;;;;;;;;;5017107;28;20029;-77
2022/11/22 07:55:35;;;;;;;14.87;3.50;;;;;;;;;;5032531;28;20087;-77
2022/11/22 07:58:01;;;;;;;15.33;3.17;;;;;;;;;;5023446;28;20040;-76
2022/11/22 08:00:28;;;;;;;34.87;6.23;;;;;;;;;;5030110;28;20068;-76
2022/11/22 08:02:54;;;;;;;16.40;4.47;;;;;;;;;;5017571;28;20129;-77
2022/11/22 08:05:22;;;;;;;24.23;3.67;;;;;;;;;;5038925;28;20041;-76
2022/11/22 08:07:49;;;;;;;17.13;3.50;;;;;;;;;;5027388;28;20440;-76
2022/11/22 08:10:18;;;;;;;20.47;4.33;;;;;;;;;;5032064;28;20037;-76
2022/11/22 08:12:45;;;;;;;16.07;3.37;;;;;;;;;;5020428;28;20065;-78
2022/11/22 08:15:12;;;;;;;24.03;3.97;;;;;;;;;;5034029;28;20030;-75
2022/11/22 08:17:38;;;;;;;19.10;3.40;;;;;;;;;;5018854;28;20060;-76
2022/11/22 08:20:05;;;;;;;21.23;3.13;;;;;;;;;;5018308;28;20034;-76
2022/11/22 08:22:34;;;;;;;17.67;3.17;;;;;;;;;;5028305;28;20107;-77
2022/11/22 08:25:00;;;;;;;17.10;3.57;;;;;;;;;;5016768;28;20105;-78
2022/11/22 08:27:26;;;;;;;15.17;2.60;;;;;;;;;;5018272;28;20033;-78
2022/11/22 08:29:52;;;;;;;18.57;2.90;;;;;;;;;;5018975;28;20030;-78
2022/11/22 08:32:18;;;;;;;24.97;3.43;;;;;;;;;;5019050;28;20029;-77
2022/11/22 08:34:44;;;;;;;11.90;2.40;;;;;;;;;;5015992;28;20048;-75
2022/11/22 08:37:13;;;;;;;12.07;2.20;;;;;;;;;;5019074;28;20455;-77
2022/11/22 08:39:39;;;;;;;18.83;2.77;;;;;;;;;;5017100;28;20036;-76
2022/11/22 08:42:05;;;;;;;9.83;2.70;;;;;;;;;;5016401;28;20914;-76
2022/11/22 08:44:31;;;;;;;13.90;2.27;;;;;;;;;;5019285;28;20122;-79
2022/11/22 08:46:57;;;;;;;15.87;2.40;;;;;;;;;;5016749;28;20029;-76
2022/11/22 08:49:23;;;;;;;20.37;2.97;;;;;;;;;;5018487;28;20029;-77
2022/11/22 08:51:49;;;;;;;13.77;3.30;;;;;;;;;;5026864;28;20108;-78
2022/11/22 08:54:18;;;;;;;14.10;2.73;;;;;;;;;;5016219;28;20045;-76
2022/11/22 08:56:44;;;;;;;11.10;2.50;;;;;;;;;;5014496;28;20030;-77
2022/11/22 08:59:10;;;;;;;15.93;2.40;;;;;;;;;;5028541;28;20033;-77
2022/11/22 09:01:36;;;;;;;8.80;2.07;;;;;;;;;;5014447;28;20095;-76
2022/11/22 09:04:04;;;;;;;7.77;2.10;;;;;;;;;;5016191;28;20616;-77
2022/11/22 09:06:31;;;;;;;11.70;2.50;;;;;;;;;;5015669;28;20034;-76
2022/11/22 09:08:59;;;;;;;17.87;2.40;;;;;;;;;;5019615;28;20029;-76
2022/11/22 09:11:25;;;;;;;8.00;1.80;;;;;;;;;;5020291;28;20037;-76
2022/11/22 09:13:54;;;;;;;14.67;1.90;;;;;;;;;;5019216;28;20120;-76
2022/11/22 09:16:20;;;;;;;9.07;2.00;;;;;;;;;;5020217;28;20033;-77
2022/11/22 09:18:47;;;;;;;14.17;1.93;;;;;;;;;;5021798;28;20364;-75
2022/11/22 09:21:14;;;;;;;6.33;1.27;;;;;;;;;;5022960;28;20100;-77
2022/11/22 09:23:42;;;;;;;8.67;1.83;;;;;;;;;;5021984;28;20022;-75
2022/11/22 09:26:09;;;;;;;7.53;1.60;;;;;;;;;;5033738;28;20033;-76
2022/11/22 09:28:38;;;;;;;9.83;1.60;;;;;;;;;;5018852;28;20037;-76
2022/11/22 09:31:05;;;;;;;11.87;1.80;;;;;;;;;;5029654;28;20041;-78
2022/11/22 09:33:32;;;;;;;9.03;2.63;;;;;;;;;;5022334;28;20059;-76
2022/11/22 09:35:59;;;;;;;9.17;2.27;;;;;;;;;;5032160;28;20516;-77
2022/11/22 09:38:25;;;;;;;8.50;1.67;;;;;;;;;;5018717;28;20044;-76
2022/11/22 09:40:51;;;;;;;9.70;1.93;;;;;;;;;;5015472;28;20022;-77
2022/11/22 09:43:20;;;;;;;6.80;1.43;;;;;;;;;;5017220;28;20026;-79
2022/11/22 09:45:52;;;;;;;9.93;1.40;;;;;;;;;;5018296;28;20030;-77
2022/11/22 09:48:18;;;;;;;15.88;2.25;;;;;;;;;;5018430;28;20616;-78
2022/11/22 09:51:03;;;;;;;7.47;1.30;;;;;;;;;;5015388;28;20022;-78
2022/11/22 09:53:33;;;;;;;6.63;1.70;;;;;;;;;;5015808;28;20053;-78
2022/11/22 09:56:02;;;;;;;10.10;2.13;;;;;;;;;;5017883;28;20414;-77
2022/11/22 09:58:50;;;;;;;10.17;2.30;;;;;;;;;;5017469;28;20026;-78
2022/11/22 10:01:26;;;;;;;8.07;2.03;;;;;;;;;;5025295;28;20026;-77
2022/11/22 10:03:57;;;;;;;13.57;1.77;;;;;;;;;;5018013;28;20026;-78
2022/11/22 10:06:32;;;;;;;6.53;1.60;;;;;;;;;;5017994;28;20494;-77
2022/11/22 10:08:58;;;;;;;9.23;1.70;;;;;;;;;;5017396;28;20049;-78
2022/11/22 10:11:29;;;;;;;11.53;2.00;;;;;;;;;;5013729;28;20034;-77
2022/11/22 10:13:59;;;;;;;10.53;2.53;;;;;;;;;;5033257;28;20049;-78
2022/11/22 10:16:34;;;;;;;8.20;1.77;;;;;;;;;;5016294;28;20117;-76
2022/11/22 10:19:09;;;;;;;11.73;2.10;;;;;;;;;;5016179;28;20030;-77
2022/11/22 10:21:35;;;;;;;7.33;1.53;;;;;;;;;;5027604;28;20099;-77
2022/11/22 10:24:02;;;;;;;6.13;1.43;;;;;;;;;;5016532;28;20042;-77
2022/11/22 10:26:35;;;;;;;11.83;1.30;;;;;;;;;;5016166;28;20034;-76
2022/11/22 10:29:16;;;;;;;5.93;1.10;;;;;;;;;;5016575;28;20061;-77
2022/11/22 10:31:42;;;;;;;5.43;0.87;;;;;;;;;;5032486;28;20455;-77
2022/11/22 10:34:34;;;;;;;4.00;1.20;;;;;;;;;;5032345;28;20045;-77
2022/11/22 10:37:26;;;;;;;4.93;1.47;;;;;;;;;;5021706;28;20073;-77
2022/11/22 10:39:52;;;;;;;4.85;1.00;;;;;;;;;;5013497;28;20042;-77
2022/11/22 10:42:24;;;;;;;4.23;1.00;;;;;;;;;;5033267;28;20114;-77
2022/11/22 10:44:59;;;;;;;2.28;0.77;;;;;;;;;;5016073;28;20050;-77
2022/11/22 10:47:43;;;;;;;3.57;1.00;;;;;;;;;;5016130;28;20117;-77
2022/11/22 10:50:14;;;;;;;4.03;0.97;;;;;;;;;;5016322;28;20084;-78
2022/11/22 10:52:59;;;;;;;7.00;1.23;;;;;;;;;;5016370;28;20022;-78
2022/11/22 10:55:25;;;;;;;4.13;0.80;;;;;;;;;;5032593;28;20092;-77
2022/11/22 10:57:54;;;;;;;4.93;0.70;;;;;;;;;;5032621;28;20042;-78
2022/11/22 11:00:20;;;;;;;3.70;1.23;;;;;;;;;;5002147;28;20339;-76
2022/11/22 11:02:49;;;;;;;7.23;1.30;;;;;;;;;;5032571;28;20113;-78
2022/11/22 11:05:17;;;;;;;3.07;0.60;;;;;;;;;;5016062;28;20195;-78
2022/11/22 11:07:46;;;;;;;1.60;0.80;;;;;;;;;;5032303;28;20414;-78
2022/11/22 11:10:17;;;;;;;5.30;0.83;;;;;;;;;;5027485;28;20034;-78
2022/11/22 11:12:53;;;;;;;3.13;0.90;;;;;;;;;;5019580;28;20030;-77
2022/11/22 11:15:20;;;;;;;7.63;0.80;;;;;;;;;;5015582;28;20026;-78
2022/11/22 11:17:48;;;;;;;4.10;0.80;;;;;;;;;;5016907;28;20026;-77
2022/11/22 11:20:20;;;;;;;3.53;0.90;;;;;;;;;;5036668;28;20478;-77
2022/11/22 11:22:46;;;;;;;1.40;0.40;;;;;;;;;;5013387;28;20022;-78
2022/11/22 11:25:39;;;;;;;2.23;0.47;;;;;;;;;;5015938;28;20079;-78
2022/11/22 11:28:12;;;;;;;3.65;0.70;;;;;;;;;;5015538;28;20037;-78
2022/11/22 11:30:49;;;;;;;1.70;0.50;;;;;;;;;;5028490;28;20038;-78
2022/11/22 11:33:28;;;;;;;3.60;0.80;;;;;;;;;;5031711;28;20092;-77
2022/11/22 11:36:02;;;;;;;1.97;0.57;;;;;;;;;;5016526;28;20057;-77
2022/11/22 11:38:32;;;;;;;6.43;0.57;;;;;;;;;;5018756;28;20036;-78
2022/11/22 11:41:18;;;;;;;5.07;0.77;;;;;;;;;;5016397;28;20022;-78
2022/11/22 11:43:44;;;;;;;3.33;0.50;;;;;;;;;;5011128;28;20036;-78
2022/11/22 11:46:17;;;;;;;2.50;0.60;;;;;;;;;;5012746;28;20082;-78
2022/11/22 11:48:46;;;;;;;3.97;0.90;;;;;;;;;;5016004;28;20112;-77
2022/11/22 11:51:12;;;;;;;3.50;0.63;;;;;;;;;;5015388;28;20026;-77
2022/11/22 11:53:39;;;;;;;3.80;0.77;;;;;;;;;;5014264;28;20030;-78
2022/11/22 11:56:28;;;;;;;3.67;0.73;;;;;;;;;;5031172;28;20041;-78
2022/11/22 11:58:55;;;;;;;2.87;0.83;;;;;;;;;;5029475;28;20030;-78
2022/11/22 12:01:23;;;;;;;3.43;0.70;;;;;;;;;;5016490;28;20026;-78
2022/11/22 12:03:50;;;;;;;2.73;0.77;;;;;;;;;;5042506;28;20026;-78
2022/11/22 12:06:17;;;;;;;2.33;0.53;;;;;;;;;;5007733;28;20088;-78
2022/11/22 12:08:43;;;;;;;3.03;0.50;;;;;;;;;;5016529;28;20080;-78
2022/11/22 12:11:17;;;;;;;3.00;0.70;;;;;;;;;;5014646;28;20485;-78
2022/11/22 12:13:44;;;;;;;2.23;0.63;;;;;;;;;;5022901;28;20037;-78
2022/11/22 12:16:18;;;;;;;2.03;0.90;;;;;;;;;;5030104;28;20026;-77
2022/11/22 12:18:58;;;;;;;3.07;0.60;;;;;;;;;;5014703;28;20037;-78
2022/11/22 12:21:30;;;;;;;2.63;0.40;;;;;;;;;;5017544;28;20026;-78
2022/11/22 12:24:09;;;;;;;3.45;1.00;;;;;;;;;;5011270;28;20022;-77
2022/11/22 12:26:35;;;;;;;5.57;0.60;;;;;;;;;;5015470;28;20528;-78
2022/11/22 12:29:01;;;;;;;2.80;0.60;;;;;;;;;;5012523;28;20088;-78
2022/11/22 12:31:31;;;;;;;10.70;1.10;;;;;;;;;;5015788;28;20117;-77
2022/11/22 12:34:00;;;;;;;3.37;0.40;;;;;;;;;;5015164;28;20096;-78
2022/11/22 12:36:35;;;;;;;6.00;0.60;;;;;;;;;;5047195;28;20083;-78
2022/11/22 12:39:03;;;;;;;4.93;1.23;;;;;;;;;;5015195;28;20034;-78
2022/11/22 12:41:31;;;;;;;2.83;0.50;;;;;;;;;;5031157;28;20022;-78
2022/11/22 12:43:59;;;;;;;1.73;0.60;;;;;;;;;;5014578;28;20025;-78
2022/11/22 12:46:31;;;;;;;6.23;1.17;;;;;;;;;;5030460;28;20026;-77
2022/11/22 12:49:02;;;;;;;4.53;0.75;;;;;;;;;;5015665;28;20100;-78
2022/11/22 12:51:28;;;;;;;2.73;0.57;;;;;;;;;;5018728;28;20120;-77
2022/11/22 12:53:57;;;;;;;6.00;1.27;;;;;;;;;;5014920;28;20120;-78
2022/11/22 12:56:28;;;;;;;2.17;0.40;;;;;;;;;;5020120;28;20045;-77
2022/11/22 12:59:10;;;;;;;3.70;0.70;;;;;;;;;;5031356;28;20481;-78
2022/11/22 13:01:44;;;;;;;1.77;0.60;;;;;;;;;;5014901;28;20049;-78
2022/11/22 13:04:10;;;;;;;2.70;0.73;;;;;;;;;;5030755;28;20022;-78
2022/11/22 13:06:59;;;;;;;2.93;0.70;;;;;;;;;;5014124;28;20364;-78
2022/11/22 13:09:32;;;;;;;1.23;0.40;;;;;;;;;;5011744;28;20037;-77
2022/11/22 13:12:02;;;;;;;1.77;0.77;;;;;;;;;;5014079;28;20037;-77
2022/11/22 13:14:35;;;;;;;5.43;0.80;;;;;;;;;;5013768;28;20500;-78
2022/11/22 13:17:05;;;;;;;1.73;0.32;;;;;;;;;;5013915;28;20068;-78
2022/11/22 13:19:35;;;;;;;2.80;0.70;;;;;;;;;;5046584;28;20491;-78
2022/11/22 13:22:13;;;;;;;2.40;0.40;;;;;;;;;;5030546;28;20029;-78
2022/11/22 13:24:58;;;;;;;2.47;0.30;;;;;;;;;;5006788;28;20034;-78
2022/11/22 13:27:28;;;;;;;1.17;0.20;;;;;;;;;;5013867;28;20033;-78
2022/11/22 13:29:55;;;;;;;0.43;0.20;;;;;;;;;;5007002;28;20026;-77
2022/11/22 13:32:24;;;;;;;0.47;0.30;;;;;;;;;;5015328;28;20069;-77
2022/11/22 13:35:05;;;;;;;0.90;0.67;;;;;;;;;;5014900;28;20030;-78
2022/11/22 13:37:33;;;;;;;1.57;0.50;;;;;;;;;;5008678;28;20038;-77
2022/11/22 13:40:08;;;;;;;1.63;0.80;;;;;;;;;;5010179;28;20116;-76
2022/11/22 13:42:34;;;;;;;2.10;0.43;;;;;;;;;;5017042;28;20026;-77
2022/11/22 13:45:00;;;;;;;1.67;0.50;;;;;;;;;;5014459;28;20118;-76
2022/11/22 13:47:26;;;;;;;1.90;0.20;;;;;;;;;;5015038;28;20415;-78
2022/11/22 13:49:55;;;;;;;1.63;0.20;;;;;;;;;;5013470;28;20052;-77
2022/11/22 13:52:21;;;;;;;0.50;0.23;;;;;;;;;;5012108;28;20073;-76
2022/11/22 13:54:47;;;;;;;0.30;0.23;;;;;;;;;;5026389;28;20065;-77
2022/11/22 13:57:28;;;;;;;1.10;0.20;;;;;;;;;;5017906;28;20149;-76
2022/11/22 14:00:23;;;;;;;;;;;;;;;;;;;;;
2022/11/22 14:02:41;;;;;;;1.50;0.50;;;;;;;;;;5017398;28;20053;-77
2022/11/22 14:05:26;;;;;;;0.50;0.20;;;;;;;;;;5032898;28;20030;-75
2022/11/22 14:07:53;;;;;;;0.87;0.20;;;;;;;;;;5017113;28;20030;-77
2022/11/22 14:10:43;;;;;;;2.23;0.23;;;;;;;;;;5032856;28;20041;-77
2022/11/22 14:13:24;;;;;;;1.13;0.60;;;;;;;;;;5010513;28;20038;-76
2022/11/22 14:15:53;;;;;;;0.53;0.37;;;;;;;;;;5018408;28;20056;-77
2022/11/22 14:18:34;;;;;;;4.00;0.50;;;;;;;;;;5031618;28;20475;-76
2022/11/22 14:21:12;;;;;;;3.60;1.43;;;;;;;;;;5029468;28;20074;-78
2022/11/22 14:23:57;;;;;;;0.63;0.20;;;;;;;;;;5020393;28;20102;-76
2022/11/22 14:26:35;;;;;;;2.73;0.70;;;;;;;;;;5029417;28;20091;-76
2022/11/22 14:29:07;;;;;;;1.67;0.70;;;;;;;;;;5017798;28;20030;-76
2022/11/22 14:31:34;;;;;;;1.88;0.50;;;;;;;;;;5030347;28;20040;-77
2022/11/22 14:34:22;;;;;;;1.97;0.63;;;;;;;;;;5018481;28;20757;-77
2022/11/22 14:37:20;;;;;;;3.07;0.50;;;;;;;;;;5030576;28;20033;-75
2022/11/22 14:39:51;;;;;;;3.17;0.53;;;;;;;;;;5012456;28;20060;-77
2022/11/22 14:42:39;;;;;;;1.40;0.40;;;;;;;;;;5028548;28;20068;-77
2022/11/22 14:45:09;;;;;;;1.00;0.47;;;;;;;;;;5016536;28;20100;-76
2022/11/22 14:47:35;;;;;;;0.60;0.20;;;;;;;;;;5031743;28;20065;-77
2022/11/22 14:50:06;;;;;;;2.00;0.27;;;;;;;;;;5036004;28;20022;-77
2022/11/22 14:52:32;;;;;;;0.43;0.20;;;;;;;;;;5017209;28;20034;-77
2022/11/22 14:55:04;;;;;;;2.13;0.60;;;;;;;;;;5029192;28;20033;-76
2022/11/22 14:57:32;;;;;;;0.52;0.30;;;;;;;;;;5018857;28;20730;-76
2022/11/22 15:00:07;;;;;;;0.67;0.30;;;;;;;;;;5017717;28;20088;-76
2022/11/22 15:02:33;;;;;;;0.57;0.30;;;;;;;;;;5026233;28;20029;-76
2022/11/22 15:04:59;;;;;;;1.03;0.33;;;;;;;;;;5015340;28;20026;-77
2022/11/22 15:07:34;;;;;;;1.67;0.90;;;;;;;;;;5016545;28;20033;-76